createdAt,value
2019-04-03T00:00:42.609Z,14.37
2019-04-03T00:03:15.859Z,13.80
2019-04-03T00:05:52.012Z,13.67
2019-04-03T00:08:25.375Z,13.43
2019-04-03T00:10:58.304Z,11.70
2019-04-03T00:13:31.566Z,12.03
2019-04-03T00:16:04.459Z,12.83
2019-04-03T00:18:37.573Z,12.80
2019-04-03T00:21:11.725Z,12.47
2019-04-03T00:23:45.125Z,9.77
2019-04-03T00:26:22.567Z,8.97
2019-04-03T00:28:55.088Z,10.07
2019-04-03T00:31:28.182Z,8.30
2019-04-03T00:34:02.623Z,9.53
2019-04-03T00:36:38.086Z,9.43
2019-04-03T00:39:12.057Z,10.27
2019-04-03T00:41:45.182Z,7.87
2019-04-03T00:44:18.375Z,9.80
2019-04-03T00:46:53.875Z,7.20
2019-04-03T00:49:27.434Z,5.60
2019-04-03T00:52:00.352Z,4.30
2019-04-03T00:54:33.784Z,3.77
2019-04-03T00:57:07.313Z,4.47
2019-04-03T00:59:41.100Z,4.83
2019-04-03T01:02:16.309Z,3.93
2019-04-03T01:04:49.741Z,4.03
2019-04-03T01:07:22.524Z,3.50
2019-04-03T01:09:56.082Z,3.00
2019-04-03T01:12:31.272Z,3.40
2019-04-03T01:15:06.839Z,3.10
2019-04-03T01:17:39.834Z,2.73
2019-04-03T01:20:15.894Z,2.80
2019-04-03T01:22:50.920Z,2.67
2019-04-03T01:25:23.743Z,3.00
2019-04-03T01:28:00.840Z,2.20
2019-04-03T01:30:32.501Z,1.80
2019-04-03T01:33:06.046Z,2.40
2019-04-03T01:35:39.079Z,2.17
2019-04-03T01:38:12.163Z,2.97
2019-04-03T01:40:45.500Z,1.90
2019-04-03T01:43:18.401Z,2.37
2019-04-03T01:45:51.761Z,2.67
2019-04-03T01:48:24.935Z,2.40
2019-04-03T01:50:59.589Z,2.10
2019-04-03T01:53:33.162Z,2.03
2019-04-03T01:56:11.628Z,1.63
2019-04-03T01:58:42.067Z,4.00
2019-04-03T02:01:15.407Z,1.60
2019-04-03T02:03:48.670Z,1.80
2019-04-03T02:06:22.366Z,1.00
2019-04-03T02:08:55.229Z,1.47
2019-04-03T02:11:28.458Z,17.23
2019-04-03T02:14:01.438Z,2.77
2019-04-03T02:16:34.684Z,3.77
2019-04-03T02:19:07.855Z,1.83
2019-04-03T02:21:41.047Z,1.10
2019-04-03T02:24:15.224Z,1.10
2019-04-03T02:26:48.443Z,0.93
2019-04-03T02:29:21.542Z,1.70
2019-04-03T02:31:54.698Z,1.23
2019-04-03T02:34:34.240Z,1.57
2019-04-03T02:37:02.885Z,1.63
2019-04-03T02:39:36.017Z,1.27
2019-04-03T02:42:09.878Z,1.07
2019-04-03T02:44:43.063Z,1.53
2019-04-03T02:47:16.317Z,1.93
2019-04-03T02:49:50.226Z,1.23
2019-04-03T02:52:25.318Z,1.37
2019-04-03T02:54:57.649Z,1.80
2019-04-03T02:57:30.961Z,2.57
2019-04-03T03:00:04.032Z,1.40
2019-04-03T03:02:37.117Z,1.20
2019-04-03T03:05:28.189Z,1.80
2019-04-03T03:07:59.496Z,1.73
2019-04-03T03:10:32.569Z,1.37
2019-04-03T03:13:06.266Z,1.60
2019-04-03T03:15:39.012Z,1.20
2019-04-03T03:18:12.562Z,1.90
2019-04-03T03:20:45.275Z,1.30
2019-04-03T03:23:22.323Z,1.83
2019-04-03T03:25:53.294Z,1.10
2019-04-03T03:28:26.674Z,1.80
2019-04-03T03:31:03.632Z,1.53
2019-04-03T03:33:38.372Z,5.93
2019-04-03T03:36:08.427Z,6.00
2019-04-03T03:38:42.010Z,1.67
2019-04-03T03:41:15.288Z,1.60
2019-04-03T03:43:48.570Z,1.80
2019-04-03T03:46:23.913Z,1.30
2019-04-03T03:48:56.288Z,1.37
2019-04-03T03:51:31.134Z,1.27
2019-04-03T03:54:05.655Z,1.10
2019-04-03T03:56:39.141Z,1.83
2019-04-03T03:59:16.332Z,1.50
2019-04-03T04:01:46.647Z,1.20
2019-04-03T04:04:19.814Z,1.20
2019-04-03T04:06:53.234Z,1.10
2019-04-03T04:09:26.732Z,1.20
2019-04-03T04:12:02.130Z,0.80
2019-04-03T04:14:34.881Z,1.10
2019-04-03T04:17:09.497Z,1.00
2019-04-03T04:19:42.084Z,1.27
2019-04-03T04:22:16.754Z,1.17
2019-04-03T04:24:50.460Z,1.50
2019-04-03T04:27:23.724Z,1.07
2019-04-03T04:29:57.209Z,1.23
2019-04-03T04:32:32.903Z,1.20
2019-04-03T04:35:06.249Z,1.33
2019-04-03T04:37:40.730Z,2.07
2019-04-03T04:40:14.784Z,1.40
2019-04-03T04:42:47.955Z,1.50
2019-04-03T04:45:21.215Z,1.53
2019-04-03T04:47:54.485Z,5.83
2019-04-03T04:50:27.902Z,1.83
2019-04-03T04:53:01.123Z,1.70
2019-04-03T04:55:35.092Z,1.90
2019-04-03T04:58:09.681Z,1.00
2019-04-03T05:00:43.056Z,1.10
2019-04-03T05:03:16.162Z,1.70
2019-04-03T05:05:49.441Z,1.73
2019-04-03T05:08:22.571Z,1.87
2019-04-03T05:10:56.078Z,1.73
2019-04-03T05:13:29.113Z,0.90
2019-04-03T05:16:02.671Z,1.37
2019-04-03T05:18:35.701Z,1.80
2019-04-03T05:21:09.990Z,1.00
2019-04-03T05:23:43.012Z,1.07
2019-04-03T05:26:21.085Z,1.20
2019-04-03T05:28:57.566Z,1.17
2019-04-03T05:31:30.547Z,1.57
2019-04-03T05:34:04.267Z,1.43
2019-04-03T05:36:37.984Z,1.30
2019-04-03T05:39:11.420Z,1.00
2019-04-03T05:41:44.736Z,1.10
2019-04-03T05:44:17.705Z,1.33
2019-04-03T05:46:50.998Z,2.10
2019-04-03T05:49:24.067Z,2.17
2019-04-03T05:51:57.216Z,3.53
2019-04-03T05:54:30.436Z,1.80
2019-04-03T05:57:05.281Z,1.10
2019-04-03T05:59:38.425Z,1.30
2019-04-03T06:02:15.737Z,1.40
2019-04-03T06:04:46.032Z,1.80
2019-04-03T06:07:23.142Z,1.23
2019-04-03T06:09:58.302Z,1.10
2019-04-03T06:12:32.352Z,1.00
2019-04-03T06:15:09.179Z,1.47
2019-04-03T06:17:42.609Z,1.30
2019-04-03T06:20:21.242Z,1.60
2019-04-03T06:22:56.326Z,1.10
2019-04-03T06:25:31.504Z,1.77
2019-04-03T06:28:03.967Z,1.40
2019-04-03T06:30:47.184Z,1.77
2019-04-03T06:33:20.655Z,2.10
2019-04-03T06:35:53.567Z,1.10
2019-04-03T06:38:26.993Z,2.70
2019-04-03T06:40:59.950Z,1.10
2019-04-03T06:43:33.207Z,1.00
2019-04-03T06:46:06.314Z,0.90
2019-04-03T06:48:39.656Z,0.53
2019-04-03T06:51:14.048Z,2.50
2019-04-03T06:53:47.409Z,1.10
2019-04-03T06:56:20.348Z,1.00
2019-04-03T06:58:53.909Z,1.33
2019-04-03T07:01:26.988Z,0.90
2019-04-03T07:04:01.019Z,6.50
2019-04-03T07:06:33.950Z,1.23
2019-04-03T07:09:16.079Z,0.97
2019-04-03T07:11:43.523Z,1.47
2019-04-03T07:14:16.871Z,0.80
2019-04-03T07:16:50.029Z,1.03
2019-04-03T07:19:23.265Z,0.83
2019-04-03T07:22:03.454Z,0.80
2019-04-03T07:24:36.915Z,0.90
2019-04-03T07:27:10.389Z,0.80
2019-04-03T07:29:44.296Z,0.80
2019-04-03T07:32:17.255Z,0.80
2019-04-03T07:34:50.552Z,1.00
2019-04-03T07:37:23.700Z,1.23
2019-04-03T07:39:58.670Z,1.13
2019-04-03T07:42:31.584Z,0.80
2019-04-03T07:45:04.992Z,1.00
2019-04-03T07:47:38.658Z,1.30
2019-04-03T07:50:12.188Z,1.10
2019-04-03T07:52:48.952Z,1.13
2019-04-03T07:55:24.278Z,1.23
2019-04-03T07:57:58.032Z,1.10
2019-04-03T08:00:32.529Z,1.17
2019-04-03T08:03:05.288Z,1.33
2019-04-03T08:05:38.478Z,1.63
2019-04-03T08:08:11.804Z,2.03
2019-04-03T08:10:45.193Z,1.10
2019-04-03T08:13:18.508Z,1.17
2019-04-03T08:15:52.333Z,1.63
2019-04-03T08:18:25.460Z,1.73
2019-04-03T08:21:01.479Z,1.90
2019-04-03T08:23:34.682Z,1.60
2019-04-03T08:26:11.252Z,3.27
2019-04-03T08:28:42.991Z,1.60
2019-04-03T08:31:16.754Z,2.30
2019-04-03T08:33:50.144Z,1.73
2019-04-03T08:36:26.073Z,1.60
2019-04-03T08:38:58.905Z,1.83
2019-04-03T08:41:32.288Z,2.70
2019-04-03T08:44:09.147Z,1.70
2019-04-03T08:46:42.788Z,2.40
2019-04-03T08:49:14.276Z,2.50
2019-04-03T08:51:47.814Z,1.80
2019-04-03T08:54:20.778Z,2.20
2019-04-03T08:56:54.366Z,2.23
2019-04-03T08:59:28.729Z,2.67
2019-04-03T09:02:03.030Z,2.40
2019-04-03T09:04:36.516Z,2.90
2019-04-03T09:07:09.960Z,3.03
2019-04-03T09:09:42.940Z,2.17
2019-04-03T09:12:16.368Z,2.07
2019-04-03T09:14:49.773Z,2.20
2019-04-03T09:17:23.659Z,2.57
2019-04-03T09:19:57.368Z,1.90
2019-04-03T09:22:30.840Z,2.83
2019-04-03T09:25:03.744Z,2.17
2019-04-03T09:27:37.953Z,2.17
2019-04-03T09:30:13.790Z,2.40
2019-04-03T09:32:46.991Z,2.43
2019-04-03T09:35:20.840Z,1.27
2019-04-03T09:37:54.306Z,1.80
2019-04-03T09:40:27.336Z,1.50
2019-04-03T09:43:00.624Z,2.10
2019-04-03T09:45:33.838Z,2.33
2019-04-03T09:48:10.949Z,2.73
2019-04-03T09:50:47.187Z,4.27
2019-04-03T09:53:20.386Z,3.87
2019-04-03T09:55:53.773Z,4.70
2019-04-03T09:58:27.572Z,4.63
2019-04-03T10:01:00.725Z,4.87
2019-04-03T10:03:34.875Z,3.53
2019-04-03T10:06:08.012Z,3.60
2019-04-03T10:08:41.564Z,3.50
2019-04-03T10:11:15.187Z,3.47
2019-04-03T10:13:48.972Z,3.23
2019-04-03T10:16:22.116Z,2.80
2019-04-03T10:18:57.101Z,2.50
2019-04-03T10:21:32.856Z,2.40
2019-04-03T10:24:04.811Z,2.00
2019-04-03T10:26:39.927Z,2.00
2019-04-03T10:29:12.452Z,2.27
2019-04-03T10:31:45.462Z,1.93
2019-04-03T10:34:19.317Z,2.07
2019-04-03T10:36:53.126Z,1.83
2019-04-03T10:39:26.566Z,1.90
2019-04-03T10:42:00.381Z,1.77
2019-04-03T10:44:34.274Z,2.00
2019-04-03T10:47:07.370Z,2.77
2019-04-03T10:49:41.440Z,2.33
2019-04-03T10:52:15.146Z,1.80
2019-04-03T10:54:49.321Z,2.00
2019-04-03T10:57:22.426Z,1.93
2019-04-03T10:59:57.492Z,2.70
2019-04-03T11:02:31.024Z,1.90
2019-04-03T11:05:04.061Z,2.00
2019-04-03T11:07:36.996Z,1.67
2019-04-03T11:10:10.899Z,1.30
2019-04-03T11:12:44.285Z,1.60
2019-04-03T11:15:18.180Z,2.13
2019-04-03T11:17:51.489Z,2.30
2019-04-03T11:20:44.330Z,1.47
2019-04-03T11:23:18.097Z,1.43
2019-04-03T11:25:52.551Z,1.70
2019-04-03T11:28:26.163Z,1.77
2019-04-03T11:31:01.166Z,1.43
2019-04-03T11:33:33.598Z,1.10
2019-04-03T11:36:06.921Z,1.47
2019-04-03T11:38:40.217Z,1.30
2019-04-03T11:41:18.016Z,1.57
2019-04-03T11:43:47.956Z,1.60
2019-04-03T11:46:22.140Z,1.10
2019-04-03T11:48:55.385Z,1.47
2019-04-03T11:51:29.708Z,2.17
2019-04-03T11:54:07.024Z,1.30
2019-04-03T11:56:38.551Z,1.47
2019-04-03T11:59:11.784Z,1.50
2019-04-03T12:01:45.297Z,2.00
2019-04-03T12:04:18.498Z,1.10
2019-04-03T12:06:52.677Z,1.17
2019-04-03T12:09:25.971Z,2.03
2019-04-03T12:11:59.752Z,1.10
2019-04-03T12:14:32.843Z,1.60
2019-04-03T12:17:06.016Z,1.17
2019-04-03T12:19:39.069Z,1.07
2019-04-03T12:22:12.652Z,1.60
2019-04-03T12:24:45.825Z,2.43
2019-04-03T12:27:18.906Z,1.70
2019-04-03T12:29:54.229Z,2.20
2019-04-03T12:32:36.565Z,1.57
2019-04-03T12:35:00.167Z,1.60
2019-04-03T12:37:33.409Z,1.80
2019-04-03T12:40:06.406Z,1.60
2019-04-03T12:42:40.004Z,1.40
2019-04-03T12:45:13.052Z,1.60
2019-04-03T12:47:46.630Z,1.50
2019-04-03T12:50:20.465Z,1.77
2019-04-03T12:52:53.929Z,1.97
2019-04-03T12:55:26.933Z,1.70
2019-04-03T12:58:00.418Z,2.17
2019-04-03T13:00:33.692Z,2.13
2019-04-03T13:03:13.800Z,1.70
2019-04-03T13:05:48.588Z,1.47
2019-04-03T13:08:21.768Z,1.43
2019-04-03T13:10:54.920Z,1.77
2019-04-03T13:13:28.859Z,1.73
2019-04-03T13:16:01.883Z,1.60
2019-04-03T13:18:35.283Z,1.97
2019-04-03T13:21:09.223Z,1.73
2019-04-03T13:23:45.082Z,1.67
2019-04-03T13:26:16.461Z,1.30
2019-04-03T13:28:50.044Z,1.60
2019-04-03T13:31:23.098Z,1.60
2019-04-03T13:33:56.908Z,1.53
2019-04-03T13:36:29.849Z,1.93
2019-04-03T13:39:03.356Z,1.93
2019-04-03T13:41:36.764Z,1.27
2019-04-03T13:44:11.334Z,1.47
2019-04-03T13:46:44.502Z,1.53
2019-04-03T13:49:18.633Z,1.33
2019-04-03T13:51:52.735Z,1.80
2019-04-03T13:54:26.703Z,1.60
2019-04-03T13:57:00.342Z,1.70
2019-04-03T13:59:34.013Z,1.80
2019-04-03T14:02:07.014Z,1.30
2019-04-03T14:04:40.278Z,2.10
2019-04-03T14:07:13.444Z,1.50
2019-04-03T14:09:52.253Z,1.73
2019-04-03T14:12:21.315Z,1.97
2019-04-03T14:14:54.729Z,2.00
2019-04-03T14:17:28.228Z,2.13
2019-04-03T14:20:01.721Z,2.03
2019-04-03T14:22:35.321Z,1.60
2019-04-03T14:25:19.340Z,1.67
2019-04-03T14:27:44.779Z,1.90
2019-04-03T14:30:18.792Z,1.83
2019-04-03T14:32:53.424Z,1.50
2019-04-03T14:38:00.419Z,1.37
2019-04-03T14:40:34.215Z,1.73
2019-04-03T14:43:07.092Z,2.37
2019-04-03T14:45:40.361Z,2.03
2019-04-03T14:48:13.317Z,1.90
2019-04-03T14:50:46.820Z,1.83
2019-04-03T14:53:20.158Z,1.57
2019-04-03T14:55:54.194Z,1.83
2019-04-03T14:58:27.591Z,2.33
2019-04-03T15:01:01.233Z,1.83
2019-04-03T15:03:34.876Z,1.60
2019-04-03T15:06:09.703Z,1.60
2019-04-03T15:08:42.769Z,1.70
2019-04-03T15:11:16.773Z,1.80
2019-04-03T15:13:51.173Z,1.70
2019-04-03T15:16:24.574Z,1.90
2019-04-03T15:18:57.951Z,1.90
2019-04-03T15:21:31.825Z,2.00
2019-04-03T15:24:04.688Z,1.70
2019-04-03T15:26:38.475Z,1.70
2019-04-03T15:29:11.565Z,1.80
2019-04-03T15:31:45.840Z,2.03
2019-04-03T15:34:18.950Z,2.20
2019-04-03T15:36:53.614Z,1.70
2019-04-03T15:39:26.574Z,1.50
2019-04-03T15:41:59.850Z,2.00
2019-04-03T15:44:33.255Z,1.90
2019-04-03T15:47:09.266Z,2.20
2019-04-03T15:49:41.007Z,2.27
2019-04-03T15:52:14.435Z,2.70
2019-04-03T15:54:47.268Z,2.03
2019-04-03T15:57:21.186Z,3.10
2019-04-03T15:59:54.440Z,2.40
2019-04-03T16:02:28.622Z,2.40
2019-04-03T16:05:01.730Z,2.23
2019-04-03T16:07:35.137Z,2.27
2019-04-03T16:10:09.356Z,2.23
2019-04-03T16:12:43.509Z,2.00
2019-04-03T16:15:16.776Z,1.90
2019-04-03T16:17:50.043Z,1.73
2019-04-03T16:20:23.585Z,2.73
2019-04-03T16:22:56.780Z,2.30
2019-04-03T16:25:30.293Z,2.03
2019-04-03T16:28:04.089Z,2.00
2019-04-03T16:30:37.672Z,2.53
2019-04-03T16:33:20.840Z,2.80
2019-04-03T16:35:45.916Z,2.83
2019-04-03T16:38:19.267Z,2.30
2019-04-03T16:40:53.242Z,2.20
2019-04-03T16:43:26.550Z,2.20
2019-04-03T16:45:59.451Z,2.60
2019-04-03T16:48:33.319Z,2.40
2019-04-03T16:51:06.033Z,2.53
2019-04-03T16:53:40.124Z,2.13
2019-04-03T16:56:13.380Z,2.07
2019-04-03T16:58:46.920Z,3.07
2019-04-03T17:01:20.313Z,2.77
2019-04-03T17:03:53.759Z,2.00
2019-04-03T17:06:27.302Z,2.63
2019-04-03T17:09:01.128Z,3.13
2019-04-03T17:11:33.894Z,3.67
2019-04-03T17:14:07.837Z,4.10
2019-04-03T17:16:41.331Z,1.97
2019-04-03T17:19:15.799Z,2.50
2019-04-03T17:21:50.422Z,2.47
2019-04-03T17:24:23.776Z,2.90
2019-04-03T17:26:59.410Z,2.67
2019-04-03T17:29:31.294Z,2.67
2019-04-03T17:32:07.172Z,2.23
2019-04-03T17:34:42.025Z,2.53
2019-04-03T17:37:12.785Z,2.63
2019-04-03T17:39:46.081Z,2.27
2019-04-03T17:42:19.270Z,3.00
2019-04-03T17:44:52.640Z,2.53
2019-04-03T17:47:25.486Z,2.50
2019-04-03T17:49:59.289Z,2.77
2019-04-03T17:52:35.995Z,2.67
2019-04-03T17:55:10.051Z,2.63
2019-04-03T17:57:45.318Z,2.50
2019-04-03T18:00:20.917Z,2.67
2019-04-03T18:02:53.619Z,3.13
2019-04-03T18:05:27.325Z,2.30
2019-04-03T18:08:00.318Z,2.60
2019-04-03T18:10:33.573Z,3.17
2019-04-03T18:13:06.730Z,2.63
2019-04-03T18:15:40.316Z,2.90
2019-04-03T18:18:13.325Z,2.93
2019-04-03T18:20:46.750Z,2.87
2019-04-03T18:23:19.889Z,3.00
2019-04-03T18:25:54.042Z,3.17
2019-04-03T18:28:27.100Z,3.00
2019-04-03T18:31:00.292Z,3.50
2019-04-03T18:33:33.510Z,2.47
2019-04-03T18:36:06.990Z,2.90
2019-04-03T18:38:40.464Z,2.67
2019-04-03T18:41:16.603Z,2.20
2019-04-03T18:43:48.204Z,2.83
2019-04-03T18:46:31.561Z,3.80
2019-04-03T18:49:00.876Z,3.03
2019-04-03T18:51:30.433Z,3.43
2019-04-03T18:54:03.433Z,3.10
2019-04-03T18:56:36.727Z,4.70
2019-04-03T18:59:09.756Z,3.47
2019-04-03T19:01:42.800Z,3.47
2019-04-03T19:04:15.584Z,4.27
2019-04-03T19:06:49.004Z,4.17
2019-04-03T19:09:22.242Z,4.43
2019-04-03T19:12:07.701Z,4.43
2019-04-03T19:14:32.068Z,3.80
2019-04-03T19:17:04.421Z,3.90
2019-04-03T19:19:37.899Z,4.67
2019-04-03T19:22:11.147Z,4.97
2019-04-03T19:24:44.081Z,4.37
2019-04-03T19:27:17.294Z,4.40
2019-04-03T19:29:50.304Z,4.50
2019-04-03T19:32:24.288Z,3.30
2019-04-03T19:34:57.408Z,3.90
2019-04-03T19:37:33.459Z,3.53
2019-04-03T19:40:04.721Z,4.60
2019-04-03T19:42:37.771Z,3.27
2019-04-03T19:45:12.878Z,3.30
2019-04-03T19:47:45.288Z,3.77
2019-04-03T19:50:18.225Z,3.20
2019-04-03T19:52:51.862Z,4.70
2019-04-03T19:55:24.812Z,4.10
2019-04-03T19:57:58.323Z,4.20
2019-04-03T20:00:33.044Z,3.50
2019-04-03T20:03:05.715Z,5.80
2019-04-03T20:05:38.759Z,5.13
2019-04-03T20:08:11.983Z,4.33
2019-04-03T20:10:44.972Z,4.40
2019-04-03T20:13:18.327Z,4.57
2019-04-03T20:15:53.753Z,4.50
2019-04-03T20:18:27.374Z,5.10
2019-04-03T20:21:01.931Z,9.40
2019-04-03T20:23:35.122Z,8.93
2019-04-03T20:26:08.139Z,6.77
2019-04-03T20:28:41.221Z,6.40
2019-04-03T20:31:14.084Z,5.47
2019-04-03T20:33:47.443Z,5.40
2019-04-03T20:36:20.871Z,7.23
2019-04-03T20:38:54.207Z,6.40
2019-04-03T20:41:27.378Z,4.33
2019-04-03T20:44:00.655Z,5.33
2019-04-03T20:46:33.636Z,3.97
2019-04-03T20:49:06.759Z,4.33
2019-04-03T20:54:30.605Z,3.90
2019-04-03T20:57:04.006Z,4.17
2019-04-03T20:59:37.388Z,4.17
2019-04-03T21:02:10.325Z,4.00
2019-04-03T21:04:46.459Z,4.83
2019-04-03T21:07:37.356Z,3.80
2019-04-03T21:10:11.361Z,3.47
2019-04-03T21:12:44.150Z,4.43
2019-04-03T21:15:17.395Z,5.30
2019-04-03T21:17:50.570Z,4.03
2019-04-03T21:20:24.860Z,4.27
2019-04-03T21:22:57.881Z,4.77
2019-04-03T21:25:31.287Z,4.43
2019-04-03T21:28:04.359Z,5.77
2019-04-03T21:30:38.140Z,6.77
2019-04-03T21:33:11.239Z,6.13
2019-04-03T21:35:44.521Z,6.47
2019-04-03T21:38:18.056Z,6.27
2019-04-03T21:40:51.268Z,6.20
2019-04-03T21:43:24.385Z,6.00
2019-04-03T21:45:58.759Z,5.13
2019-04-03T21:48:31.851Z,7.40
2019-04-03T21:51:05.104Z,5.50
2019-04-03T21:53:38.042Z,4.97
2019-04-03T21:56:11.296Z,6.73
2019-04-03T21:58:44.120Z,4.83
2019-04-03T22:01:24.209Z,5.90
2019-04-03T22:03:57.318Z,5.10
2019-04-03T22:06:30.486Z,4.10
2019-04-03T22:09:03.920Z,4.27
2019-04-03T22:11:36.919Z,5.80
2019-04-03T22:14:11.067Z,6.80
2019-04-03T22:16:44.470Z,5.90
2019-04-03T22:19:17.513Z,5.93
2019-04-03T22:21:50.731Z,5.17
2019-04-03T22:24:23.910Z,5.80
2019-04-03T22:26:57.255Z,5.23
2019-04-03T22:29:30.202Z,6.03
2019-04-03T22:32:03.705Z,6.60
2019-04-03T22:34:37.682Z,4.80
2019-04-03T22:37:11.032Z,4.47
2019-04-03T22:39:44.014Z,4.13
2019-04-03T22:42:17.530Z,4.97
2019-04-03T22:44:50.768Z,4.47
2019-04-03T22:47:25.034Z,5.93
2019-04-03T22:50:00.127Z,4.43
2019-04-03T22:52:33.296Z,4.87
2019-04-03T22:55:06.296Z,4.77
2019-04-03T22:57:39.549Z,4.70
2019-04-03T23:00:12.780Z,3.73
2019-04-03T23:02:46.038Z,2.47
2019-04-03T23:05:18.968Z,2.57
2019-04-03T23:07:52.642Z,2.63
2019-04-03T23:10:25.777Z,3.90
2019-04-03T23:12:59.109Z,3.67
2019-04-03T23:15:34.797Z,2.43
2019-04-03T23:18:07.967Z,3.23
2019-04-03T23:20:42.049Z,4.77
2019-04-03T23:23:15.288Z,2.67
2019-04-03T23:25:48.236Z,2.30
2019-04-03T23:28:21.424Z,2.43
2019-04-03T23:30:57.209Z,2.50
2019-04-03T23:33:30.680Z,1.90
2019-04-03T23:36:03.835Z,2.00
2019-04-03T23:38:37.056Z,2.00
2019-04-03T23:41:10.077Z,2.47
2019-04-03T23:43:43.923Z,3.87
2019-04-03T23:46:17.012Z,2.60
2019-04-03T23:48:50.380Z,2.80
2019-04-03T23:51:23.919Z,1.97
2019-04-03T23:53:57.898Z,3.10
2019-04-03T23:56:30.831Z,2.53
2019-04-03T23:59:04.477Z,3.67
